Time;durP1;ratioP1;P1;durP2;ratioP2;P2;SDS_P1;SDS_P2;PMS_P1;PMS_P2;Temp;Humidity;BMP_temperature;BMP_pressure;BME280_temperature;BME280_humidity;BME280_pressure;Samples;Min_cycle;Max_cycle;Signal;HPM_P1;HPM_P2
2022/04/20 00:01:42;;;;;;;4.53;2.25;;;;;;;10.30;38.75;98600.69;2622176;54;20030;-64
2022/04/20 00:04:13;;;;;;;2.97;2.33;;;;;;;10.22;38.92;98595.53;2623026;31;20527;-64
2022/04/20 00:06:45;;;;;;;4.43;2.00;;;;;;;10.21;38.97;98595.72;2622246;54;20022;-64
2022/04/20 00:09:15;;;;;;;5.10;2.42;;;;;;;10.15;39.53;98594.66;2622613;54;20031;-63
2022/04/20 00:11:46;;;;;;;2.13;1.90;;;;;;;10.08;39.27;98589.34;2622822;39;20446;-64
2022/04/20 00:14:15;;;;;;;2.15;1.90;;;;;;;10.04;39.51;98595.19;2622350;54;20057;-64
2022/04/20 00:16:45;;;;;;;4.18;2.03;;;;;;;9.94;39.72;98590.28;2622186;54;20026;-64
2022/04/20 00:19:14;;;;;;;3.28;1.90;;;;;;;9.96;39.97;98592.72;2622167;46;20053;-64
2022/04/20 00:21:46;;;;;;;2.60;2.28;;;;;;;9.92;39.80;98595.75;2622796;54;20038;-63
2022/04/20 00:24:16;;;;;;;2.78;1.85;;;;;;;9.95;40.10;98597.19;2623042;54;20543;-64
2022/04/20 00:26:45;;;;;;;4.47;2.25;;;;;;;9.90;39.92;98589.03;2622491;54;20042;-64
2022/04/20 00:29:15;;;;;;;3.65;2.40;;;;;;;9.88;40.08;98596.34;2622059;54;20026;-63
2022/04/20 00:31:45;;;;;;;4.47;2.30;;;;;;;9.90;40.04;98591.66;2622322;54;20038;-64
2022/04/20 00:34:14;;;;;;;3.08;2.03;;;;;;;9.87;40.08;98592.03;2621444;54;20041;-64
2022/04/20 00:36:50;;;;;;;3.33;2.03;;;;;;;9.83;40.24;98593.44;2621152;54;20038;-63
2022/04/20 00:39:20;;;;;;;4.35;2.40;;;;;;;9.78;40.08;98594.03;2622295;39;20550;-63
2022/04/20 00:41:51;;;;;;;2.60;2.00;;;;;;;9.72;40.30;98594.00;2621566;54;20033;-62
2022/04/20 00:44:22;;;;;;;3.50;2.35;;;;;;;9.65;40.42;98594.75;2621962;54;20030;-64
2022/04/20 00:46:54;;;;;;;3.17;2.00;;;;;;;9.61;40.14;98592.69;2621729;39;20443;-62
2022/04/20 00:49:25;;;;;;;2.58;2.08;;;;;;;9.58;40.25;98600.97;2620926;47;20133;-65
2022/04/20 00:52:00;;;;;;;4.07;2.25;;;;;;;9.58;40.43;98591.22;2621349;54;20023;-64
2022/04/20 00:54:31;;;;;;;3.13;2.28;;;;;;;9.54;40.68;98594.44;2621837;51;20031;-64
2022/04/20 00:57:02;;;;;;;2.33;1.80;;;;;;;9.47;40.82;98589.13;2621994;54;20079;-63
2022/04/20 00:59:37;;;;;;;2.40;1.75;;;;;;;9.49;40.89;98597.66;2622496;39;20520;-63
2022/04/20 01:02:07;;;;;;;2.65;1.95;;;;;;;9.48;40.62;98601.31;2621963;47;20548;-63
2022/04/20 01:04:38;;;;;;;2.70;2.10;;;;;;;9.48;40.62;98598.66;2622685;54;20543;-64
2022/04/20 01:07:41;;;;;;;5.93;2.20;;;;;;;9.50;40.87;98601.91;2622164;54;20073;-63
2022/04/20 01:10:26;;;;;;;4.07;2.10;;;;;;;9.48;40.84;98597.88;2624342;54;20026;-64
2022/04/20 01:13:14;;;;;;;6.13;2.40;;;;;;;9.44;40.64;98592.16;2625470;54;20618;-63
2022/04/20 01:16:10;;;;;;;5.50;2.75;;;;;;;9.43;41.11;98590.53;2622414;54;20046;-63
2022/04/20 01:19:10;;;;;;;2.47;2.20;;;;;;;9.41;41.00;98587.25;2621780;39;20480;-63
2022/04/20 01:22:10;;;;;;;2.50;2.00;;;;;;;9.35;41.00;98588.81;2622402;54;20062;-64
2022/04/20 01:25:00;;;;;;;;;;;;;;;9.27;41.25;98586.31;2622575;54;20113;-63
2022/04/20 01:27:29;;;;;;;5.18;2.58;;;;;;;9.22;41.05;98585.22;2622674;54;20011;-64
2022/04/20 01:30:18;;;;;;;4.28;2.58;;;;;;;9.29;41.61;98599.31;2622661;54;20045;-64
2022/04/20 01:33:12;;;;;;;4.60;2.53;;;;;;;9.30;41.17;98598.28;2621444;46;20022;-65
2022/04/20 01:35:47;;;;;;;3.08;2.63;;;;;;;9.26;41.14;98592.56;2621987;39;20399;-65
2022/04/20 01:38:19;;;;;;;3.13;2.13;;;;;;;9.25;41.03;98590.13;2621274;50;20033;-65
2022/04/20 01:40:49;;;;;;;2.60;2.28;;;;;;;9.24;41.64;98589.31;2621735;47;20030;-65
2022/04/20 01:43:19;;;;;;;3.42;2.28;;;;;;;9.27;41.46;98588.16;2622045;47;20106;-65
2022/04/20 01:46:07;;;;;;;2.88;2.20;;;;;;;9.21;41.50;98588.88;2620909;47;20023;-64
2022/04/20 01:48:50;;;;;;;4.45;2.25;;;;;;;9.11;41.54;98587.38;2621113;54;20034;-65
2022/04/20 01:51:51;;;;;;;3.53;2.45;;;;;;;9.16;41.37;98586.81;2623148;54;20057;-63
2022/04/20 01:54:42;;;;;;;2.47;2.00;;;;;;;9.19;41.82;98581.19;2623919;39;20453;-66
2022/04/20 01:57:40;;;;;;;2.97;2.47;;;;;;;9.11;41.19;98581.31;2621220;47;20065;-63
2022/04/20 02:00:30;;;;;;;4.40;2.10;;;;;;;8.98;41.81;98586.41;2622504;54;20543;-64
2022/04/20 02:03:17;;;;;;;3.97;2.15;;;;;;;8.89;41.97;98588.38;2622423;54;20030;-63
2022/04/20 02:06:12;;;;;;;3.13;2.38;;;;;;;8.77;42.38;98590.66;2622580;54;20062;-64
2022/04/20 02:09:05;;;;;;;3.20;2.45;;;;;;;8.69;42.80;98593.41;2621700;47;20037;-63
2022/04/20 02:11:48;;;;;;;2.67;1.95;;;;;;;8.68;42.68;98594.41;2621320;54;20113;-64
2022/04/20 02:14:27;;;;;;;3.38;2.47;;;;;;;8.71;42.37;98594.06;2622032;54;20037;-63
2022/04/20 02:17:07;;;;;;;5.30;2.38;;;;;;;8.62;42.70;98600.44;2622343;54;20031;-64
2022/04/20 02:19:40;;;;;;;2.87;2.33;;;;;;;8.50;42.69;98594.03;2623245;39;20419;-64
2022/04/20 02:22:22;;;;;;;3.20;2.45;;;;;;;8.43;43.14;98596.56;2622139;54;20288;-64
2022/04/20 02:24:51;;;;;;;4.50;2.65;;;;;;;8.39;42.92;98598.75;2623650;54;20037;-63
2022/04/20 02:27:23;;;;;;;2.58;2.00;;;;;;;8.36;43.11;98595.63;2625883;54;20045;-64
2022/04/20 02:29:53;;;;;;;3.95;2.60;;;;;;;8.24;43.29;98597.09;2625876;47;20034;-65
2022/04/20 02:32:23;;;;;;;4.43;2.08;;;;;;;8.18;42.85;98601.28;2625569;54;20030;-62
2022/04/20 02:34:52;;;;;;;2.35;2.13;;;;;;;8.10;43.13;98604.00;2625713;54;20033;-61
2022/04/20 02:37:22;;;;;;;4.13;2.65;;;;;;;8.09;42.96;98602.38;2625280;51;20022;-62
2022/04/20 02:39:55;;;;;;;5.63;2.72;;;;;;;8.01;43.47;98594.56;2625879;54;20121;-62
2022/04/20 02:42:27;;;;;;;2.60;2.17;;;;;;;7.95;43.58;98591.63;2626597;54;20026;-62
2022/04/20 02:44:56;;;;;;;4.78;2.78;;;;;;;7.90;43.12;98596.63;2623484;54;20037;-63
2022/04/20 02:47:26;;;;;;;3.05;2.72;;;;;;;7.90;43.55;98604.53;2623220;47;20034;-63
2022/04/20 02:49:56;;;;;;;4.30;2.40;;;;;;;7.90;43.42;98601.06;2623607;47;20099;-62
2022/04/20 02:52:25;;;;;;;3.30;2.50;;;;;;;7.82;43.50;98604.59;2623309;49;20026;-63
2022/04/20 02:54:55;;;;;;;4.78;2.75;;;;;;;7.85;44.10;98608.69;2623776;54;20034;-62
2022/04/20 02:57:28;;;;;;;8.95;2.67;;;;;;;7.83;43.97;98606.22;2623207;47;20038;-63
2022/04/20 02:59:58;;;;;;;3.67;2.65;;;;;;;7.80;43.85;98611.06;2623878;54;20040;-61
2022/04/20 03:02:28;;;;;;;2.55;2.28;;;;;;;7.77;44.26;98603.53;2623283;39;20431;-64
2022/04/20 03:04:57;;;;;;;5.43;2.60;;;;;;;7.74;44.37;98609.94;2623143;54;20038;-64
2022/04/20 03:07:27;;;;;;;7.38;2.50;;;;;;;7.70;44.17;98616.56;2622440;53;20022;-63
2022/04/20 03:09:57;;;;;;;2.78;2.03;;;;;;;7.65;44.36;98611.84;2622482;54;20027;-63
2022/04/20 03:12:35;;;;;;;3.88;2.47;;;;;;;7.63;44.42;98610.38;2623746;47;20049;-63
2022/04/20 03:15:07;;;;;;;3.20;2.10;;;;;;;7.60;44.81;98603.66;2623047;54;20048;-63
2022/04/20 03:17:37;;;;;;;6.78;3.83;;;;;;;7.63;45.12;98611.22;2622347;46;20026;-62
2022/04/20 03:20:09;;;;;;;7.13;4.57;;;;;;;7.64;44.96;98610.22;2622608;47;20074;-63
2022/04/20 03:22:40;;;;;;;3.83;2.85;;;;;;;7.64;44.75;98609.41;2621644;54;20071;-64
2022/04/20 03:25:11;;;;;;;6.28;2.90;;;;;;;7.65;44.35;98606.56;2621798;54;20070;-64
2022/04/20 03:27:54;;;;;;;4.57;2.50;;;;;;;7.70;44.75;98606.03;2620927;54;20027;-64
2022/04/20 03:30:24;;;;;;;4.32;2.33;;;;;;;7.80;44.93;98608.44;2622095;54;20034;-64
2022/04/20 03:32:54;;;;;;;4.75;2.35;;;;;;;7.85;44.77;98613.97;2621067;46;20034;-64
2022/04/20 03:35:24;;;;;;;7.22;2.88;;;;;;;7.85;44.77;98614.78;2621337;54;20045;-63
2022/04/20 03:37:53;;;;;;;3.08;2.50;;;;;;;7.78;44.24;98613.84;2620954;54;20030;-63
2022/04/20 03:40:23;;;;;;;3.92;2.55;;;;;;;7.65;44.63;98618.91;2621345;51;20041;-64
2022/04/20 03:42:55;;;;;;;3.00;2.53;;;;;;;7.56;44.92;98620.81;2621993;39;20462;-65
2022/04/20 03:45:25;;;;;;;6.40;2.58;;;;;;;7.53;45.09;98622.97;2622315;39;20690;-64
2022/04/20 03:47:55;;;;;;;3.83;2.60;;;;;;;7.58;45.62;98618.78;2620461;47;20118;-64
2022/04/20 03:50:27;;;;;;;4.07;2.85;;;;;;;7.63;45.16;98627.00;2621026;54;20030;-67
2022/04/20 03:52:56;;;;;;;4.80;2.50;;;;;;;7.59;45.65;98625.72;2621350;54;20038;-64
2022/04/20 03:55:26;;;;;;;5.95;3.47;;;;;;;7.61;45.65;98625.53;2622096;54;20050;-64
2022/04/20 03:57:59;;;;;;;6.28;3.00;;;;;;;7.63;45.42;98627.00;2620788;54;20115;-64
2022/04/20 04:00:29;;;;;;;3.78;2.60;;;;;;;7.57;45.49;98626.88;2620822;51;20026;-65
2022/04/20 04:02:59;;;;;;;5.75;3.58;;;;;;;7.51;45.37;98633.69;2621892;47;20479;-65
2022/04/20 04:05:34;;;;;;;9.00;5.32;;;;;;;7.52;45.56;98627.41;2620561;54;20118;-65
2022/04/20 04:08:14;;;;;;;6.50;3.40;;;;;;;7.61;45.61;98630.78;2621244;54;20038;-65
2022/04/20 04:10:44;;;;;;;4.15;3.20;;;;;;;7.61;45.43;98623.72;2620523;54;20042;-64
2022/04/20 04:13:17;;;;;;;3.50;2.80;;;;;;;7.62;45.30;98627.16;2620029;47;20034;-64
2022/04/20 04:15:53;;;;;;;4.28;2.80;;;;;;;7.54;45.11;98629.84;2620218;31;20527;-66
2022/04/20 04:18:25;;;;;;;4.13;3.58;;;;;;;7.47;45.39;98635.03;2616431;54;20037;-65
2022/04/20 04:20:57;;;;;;;8.35;4.30;;;;;;;7.48;45.79;98635.84;2617006;47;20041;-66
2022/04/20 04:23:27;;;;;;;6.97;3.20;;;;;;;7.50;45.63;98639.91;2617278;39;20423;-66
2022/04/20 04:26:11;;;;;;;8.57;2.97;;;;;;;7.44;45.71;98635.38;2617352;47;20035;-66
2022/04/20 04:28:48;;;;;;;12.80;8.20;;;;;;;7.37;46.08;98645.75;2616793;47;20030;-66
2022/04/20 04:31:18;;;;;;;5.90;3.60;;;;;;;7.31;46.04;98637.78;2617361;47;20034;-66
2022/04/20 04:33:49;;;;;;;6.47;4.10;;;;;;;7.27;46.46;98633.88;2617266;51;20133;-65
2022/04/20 04:36:18;;;;;;;9.38;3.60;;;;;;;7.24;46.54;98634.22;2617739;54;20027;-66
2022/04/20 04:38:54;;;;;;;7.72;3.88;;;;;;;7.19;46.36;98625.03;2617775;31;20501;-67
2022/04/20 04:41:30;;;;;;;8.55;3.08;;;;;;;7.13;46.50;98633.59;2616993;47;20143;-66
2022/04/20 04:44:05;;;;;;;9.90;4.65;;;;;;;7.17;46.91;98634.88;2617447;54;20030;-66
2022/04/20 04:49:30;;;;;;;5.85;2.83;;;;;;;7.19;46.30;98637.38;2617723;54;20558;-66
2022/04/20 04:52:02;;;;;;;3.80;3.03;;;;;;;7.17;46.71;98642.78;2618407;54;20078;-66
2022/04/20 04:54:35;;;;;;;5.78;3.13;;;;;;;7.14;46.48;98644.94;2618437;54;20049;-66
2022/04/20 04:57:05;;;;;;;6.30;3.47;;;;;;;7.10;46.49;98636.59;2617819;51;20030;-66
2022/04/20 04:59:39;;;;;;;5.82;3.40;;;;;;;7.12;46.93;98645.13;2617849;54;20082;-66
2022/04/20 05:02:09;;;;;;;6.60;4.20;;;;;;;7.18;46.84;98648.84;2618511;54;20565;-66
2022/04/20 05:04:42;;;;;;;4.45;3.20;;;;;;;7.25;46.81;98651.63;2617480;39;20555;-66
2022/04/20 05:07:12;;;;;;;4.65;2.97;;;;;;;7.28;46.83;98652.09;2616789;54;20030;-65
2022/04/20 05:09:47;;;;;;;5.80;2.65;;;;;;;7.31;46.76;98653.56;2617469;54;20029;-66
2022/04/20 05:12:17;;;;;;;5.25;2.70;;;;;;;7.39;46.65;98656.13;2617440;47;20080;-65
2022/04/20 05:14:52;;;;;;;4.50;3.15;;;;;;;7.56;46.56;98659.44;2617897;39;20524;-68
2022/04/20 05:17:23;;;;;;;3.13;2.70;;;;;;;7.61;46.74;98668.44;2616758;54;20026;-65
2022/04/20 05:19:52;;;;;;;8.75;3.50;;;;;;;7.64;46.61;98659.38;2617662;54;20038;-64
2022/04/20 05:22:25;;;;;;;7.40;2.97;;;;;;;7.72;46.13;98661.94;2618934;47;20039;-66
2022/04/20 05:24:57;;;;;;;6.18;3.03;;;;;;;7.78;46.48;98663.03;2617735;54;20042;-64
2022/04/20 05:27:27;;;;;;;4.18;3.10;;;;;;;7.83;46.13;98663.31;2617855;31;20602;-65
2022/04/20 05:30:09;;;;;;;11.93;6.22;;;;;;;7.87;46.45;98664.59;2617360;54;20039;-65
2022/04/20 05:32:40;;;;;;;8.40;4.50;;;;;;;7.89;46.02;98658.16;2617624;47;20030;-65
2022/04/20 05:35:17;;;;;;;9.90;4.57;;;;;;;7.97;46.21;98652.00;2617144;54;20618;-65
2022/04/20 05:43:22;;;;;;;8.15;3.47;;;;;;;7.97;46.21;98659.09;2616947;54;20030;-65
2022/04/20 05:45:55;;;;;;;3.70;3.25;;;;;;;7.99;45.69;98657.91;2616772;54;20027;-65
2022/04/20 05:48:35;;;;;;;6.07;3.85;;;;;;;8.00;45.86;98659.56;2616574;47;20030;-65
2022/04/20 05:51:07;;;;;;;8.07;2.90;;;;;;;8.04;45.60;98652.94;2617456;39;20412;-65
2022/04/20 05:53:37;;;;;;;4.88;3.03;;;;;;;8.07;45.65;98657.81;2617184;54;20039;-65
2022/04/20 05:56:07;;;;;;;5.93;3.40;;;;;;;8.18;45.65;98648.66;2617669;54;20160;-65
2022/04/20 05:58:44;;;;;;;7.72;2.90;;;;;;;8.27;45.55;98654.66;2617416;54;20033;-65
2022/04/20 06:01:17;;;;;;;5.30;3.22;;;;;;;8.30;45.09;98649.84;2618111;54;20026;-65
2022/04/20 06:03:50;;;;;;;6.95;3.13;;;;;;;8.34;45.17;98653.75;2618603;54;20031;-65
2022/04/20 06:06:28;;;;;;;6.47;2.90;;;;;;;8.40;45.45;98646.97;2618202;54;20061;-66
2022/04/20 06:08:58;;;;;;;5.85;3.63;;;;;;;8.47;45.39;98644.44;2617511;47;20030;-66
2022/04/20 06:11:45;;;;;;;8.10;3.42;;;;;;;8.44;44.74;98648.25;2617778;51;20050;-67
2022/04/20 06:14:22;;;;;;;9.05;2.90;;;;;;;8.50;45.22;98641.44;2617910;47;20038;-66
2022/04/20 06:17:09;;;;;;;4.90;3.45;;;;;;;8.64;44.86;98641.41;2617444;47;20117;-65
2022/04/20 06:19:43;;;;;;;3.60;2.90;;;;;;;8.78;44.66;98642.41;2622962;47;20030;-66
2022/04/20 06:22:31;;;;;;;7.38;3.15;;;;;;;8.86;44.28;98646.75;2624084;54;20068;-66
2022/04/20 06:25:05;;;;;;;;;;;;;;;8.88;44.16;98645.53;2623406;47;20023;-66
2022/04/20 06:27:54;;;;;;;5.25;3.40;;;;;;;8.87;44.49;98640.47;2622863;46;20471;-66
2022/04/20 06:30:46;;;;;;;5.03;3.33;;;;;;;8.96;44.40;98641.16;2623461;54;20082;-65
2022/04/20 06:33:35;;;;;;;5.22;3.60;;;;;;;9.02;43.93;98637.78;2622370;54;20033;-65
2022/04/20 06:36:24;;;;;;;3.90;3.25;;;;;;;9.09;43.76;98652.66;2620762;54;20054;-66
2022/04/20 06:39:12;;;;;;;4.88;3.47;;;;;;;9.13;43.87;98651.28;2620909;54;20061;-65
2022/04/20 06:42:08;;;;;;;5.82;3.45;;;;;;;9.15;43.25;98648.50;2620760;54;20030;-66
2022/04/20 06:45:03;;;;;;;4.78;2.90;;;;;;;9.21;43.57;98650.38;2621248;47;20059;-68
2022/04/20 06:47:39;;;;;;;4.32;3.25;;;;;;;9.29;43.32;98654.69;2617642;54;20183;-68
2022/04/20 06:50:34;;;;;;;6.90;3.10;;;;;;;9.37;43.54;98654.59;2617464;54;20050;-68
2022/04/20 06:58:39;;;;;;;4.65;3.22;;;;;;;9.46;42.76;98650.81;2617193;54;20074;-65
2022/04/20 07:01:18;;;;;;;;;;;;;;;9.46;42.61;98657.91;2617639;47;20022;-66
2022/04/20 07:04:12;;;;;;;4.85;3.45;;;;;;;9.48;43.01;98650.63;2617212;54;20050;-66
2022/04/20 07:07:02;;;;;;;5.95;3.40;;;;;;;9.59;42.79;98645.66;2617479;54;20062;-65
2022/04/20 07:09:42;;;;;;;4.95;3.20;;;;;;;9.67;42.84;98648.16;2617805;54;20030;-65
2022/04/20 07:12:31;;;;;;;5.97;2.90;;;;;;;9.74;42.99;98645.56;2617362;47;20065;-65
2022/04/20 07:15:00;;;;;;;10.32;7.28;;;;;;;9.80;42.52;98644.00;2618057;54;20027;-65
2022/04/20 07:17:30;;;;;;;6.72;3.45;;;;;;;9.90;42.67;98639.19;2617058;54;20031;-65
2022/04/20 07:20:17;;;;;;;5.50;3.60;;;;;;;10.04;42.01;98646.22;2617842;39;20439;-66
2022/04/20 07:23:18;;;;;;;4.40;3.20;;;;;;;10.08;41.85;98644.81;2617429;54;20650;-66
2022/04/20 07:25:54;;;;;;;4.75;2.90;;;;;;;10.18;41.68;98645.28;2618180;39;20515;-65
2022/04/20 07:28:38;;;;;;;4.97;3.22;;;;;;;10.23;41.00;98635.97;2617045;47;20038;-65
2022/04/20 07:31:26;;;;;;;4.68;3.13;;;;;;;10.24;41.20;98646.31;2617246;54;20046;-66
2022/04/20 07:34:21;;;;;;;3.65;3.10;;;;;;;10.24;40.84;98641.03;2617281;54;20026;-65
2022/04/20 07:36:53;;;;;;;4.70;3.13;;;;;;;10.32;41.35;98640.09;2618036;54;20061;-65
2022/04/20 07:39:47;;;;;;;4.25;3.25;;;;;;;10.44;40.83;98648.28;2617756;54;20122;-66
2022/04/20 07:42:26;;;;;;;4.55;3.15;;;;;;;10.58;40.38;98642.09;2618471;54;20150;-65
2022/04/20 07:45:16;;;;;;;6.10;3.35;;;;;;;10.65;39.39;98645.53;2617814;47;20045;-67
2022/04/20 07:48:07;;;;;;;3.95;3.13;;;;;;;10.65;39.68;98637.63;2617054;54;20602;-66
2022/04/20 07:50:49;;;;;;;3.33;3.03;;;;;;;10.72;38.50;98643.75;2617504;46;20031;-67
2022/04/20 07:53:31;;;;;;;4.72;2.90;;;;;;;10.80;37.52;98646.22;2618269;54;20038;-67
2022/04/20 07:56:23;;;;;;;8.48;2.40;;;;;;;10.77;37.54;98643.97;2617939;39;20448;-68
2022/04/20 07:59:16;;;;;;;6.78;2.30;;;;;;;10.87;36.31;98640.97;2617570;39;20121;-67
2022/04/20 08:01:53;;;;;;;4.60;2.55;;;;;;;10.84;36.58;98644.00;2618009;54;20565;-67
2022/04/20 08:04:42;;;;;;;4.75;2.45;;;;;;;10.85;36.75;98640.34;2617945;54;20030;-67
2022/04/20 08:07:19;;;;;;;8.00;2.83;;;;;;;11.08;36.14;98646.13;2616731;54;20034;-67
2022/04/20 08:09:50;;;;;;;3.20;2.67;;;;;;;11.07;35.88;98638.41;2617446;39;20449;-68
2022/04/20 08:12:24;;;;;;;5.28;3.17;;;;;;;11.12;35.95;98643.91;2617347;47;20519;-66
2022/04/20 08:14:54;;;;;;;;;;;;;;;11.23;36.38;98645.97;2617637;47;20019;-66
2022/04/20 08:17:34;;;;;;;6.70;3.13;;;;;;;11.33;34.06;98651.66;2617205;39;20347;-65
2022/04/20 08:20:22;;;;;;;15.68;3.80;;;;;;;11.26;33.92;98640.25;2618391;54;20038;-66
2022/04/20 08:22:58;;;;;;;6.07;3.33;;;;;;;11.29;33.64;98644.34;2617487;54;20049;-66
2022/04/20 08:25:27;;;;;;;5.40;3.03;;;;;;;11.32;33.92;98650.03;2617990;54;20065;-66
2022/04/20 08:28:00;;;;;;;4.90;3.08;;;;;;;11.38;34.03;98638.63;2618118;39;20180;-66
2022/04/20 08:30:30;;;;;;;7.78;3.30;;;;;;;11.46;34.23;98640.28;2617951;54;20068;-66
2022/04/20 08:32:59;;;;;;;4.88;2.50;;;;;;;11.63;34.21;98640.69;2618183;54;20045;-66
2022/04/20 08:35:29;;;;;;;3.05;2.70;;;;;;;11.58;33.67;98641.31;2618250;54;20030;-66
2022/04/20 08:37:59;;;;;;;5.05;2.92;;;;;;;11.54;34.04;98639.28;2617551;54;20030;-67
2022/04/20 08:40:30;;;;;;;4.00;2.70;;;;;;;11.51;33.54;98651.09;2617688;54;20034;-67
2022/04/20 08:43:05;;;;;;;4.57;2.92;;;;;;;11.49;34.66;98644.38;2617750;54;20030;-66
2022/04/20 08:45:37;;;;;;;3.92;2.75;;;;;;;11.57;34.78;98631.75;2617733;54;20042;-66
2022/04/20 08:48:09;;;;;;;4.32;3.10;;;;;;;11.75;33.84;98639.06;2617318;54;20081;-66
2022/04/20 08:50:39;;;;;;;6.07;3.22;;;;;;;11.85;34.00;98639.53;2617722;54;20038;-66
2022/04/20 08:53:09;;;;;;;4.88;2.75;;;;;;;11.83;32.93;98644.19;2618221;39;20423;-66
2022/04/20 08:55:39;;;;;;;4.47;2.58;;;;;;;11.95;32.43;98648.88;2617732;54;20131;-66
2022/04/20 08:58:11;;;;;;;5.75;3.17;;;;;;;11.95;33.18;98648.88;2617302;54;20065;-66
2022/04/20 09:00:43;;;;;;;3.70;3.30;;;;;;;11.96;32.92;98647.84;2617880;46;20054;-66
2022/04/20 09:03:13;;;;;;;4.38;2.75;;;;;;;11.88;31.70;98636.47;2617529;54;20034;-65
2022/04/20 09:05:43;;;;;;;3.15;2.70;;;;;;;11.84;31.47;98635.25;2617828;54;20558;-67
2022/04/20 09:08:14;;;;;;;6.05;2.63;;;;;;;11.86;31.49;98637.69;2617101;54;20135;-67
2022/04/20 09:10:46;;;;;;;6.10;3.58;;;;;;;11.98;31.16;98624.63;2617984;39;20439;-67
2022/04/20 09:13:18;;;;;;;2.83;2.47;;;;;;;12.07;31.00;98634.00;2618187;54;20058;-66
2022/04/20 09:15:50;;;;;;;4.13;2.53;;;;;;;12.06;30.79;98641.13;2617042;54;20088;-66
2022/04/20 09:18:22;;;;;;;4.10;2.70;;;;;;;12.09;31.09;98634.63;2616793;47;20031;-65
2022/04/20 09:20:51;;;;;;;4.28;2.38;;;;;;;12.10;31.30;98633.59;2617170;54;20040;-66
2022/04/20 09:23:21;;;;;;;4.30;2.83;;;;;;;12.31;30.52;98628.03;2616939;54;20030;-66
2022/04/20 09:25:52;;;;;;;6.25;2.38;;;;;;;12.42;30.22;98647.00;2617133;54;20570;-66
2022/04/20 09:28:26;;;;;;;4.88;2.42;;;;;;;12.28;30.13;98630.28;2617017;39;20089;-66
2022/04/20 09:30:57;;;;;;;7.03;2.70;;;;;;;12.21;30.91;98637.47;2617965;54;20034;-66
2022/04/20 09:33:44;;;;;;;4.82;2.53;;;;;;;12.30;30.69;98633.56;2618031;47;20046;-65
2022/04/20 09:36:15;;;;;;;3.08;2.13;;;;;;;12.39;30.14;98630.47;2617982;54;20038;-66
2022/04/20 09:39:04;;;;;;;4.18;2.47;;;;;;;12.36;30.28;98614.16;2618422;54;20038;-65
2022/04/20 09:41:36;;;;;;;4.88;2.55;;;;;;;12.57;30.35;98619.22;2618510;54;20191;-67
2022/04/20 09:44:14;;;;;;;2.75;2.10;;;;;;;12.68;29.74;98617.72;2618639;54;20034;-66
2022/04/20 09:49:38;;;;;;;6.20;2.40;;;;;;;12.61;29.97;98612.47;2618395;54;20045;-66
2022/04/20 09:52:12;;;;;;;4.70;2.47;;;;;;;12.58;30.36;98609.41;2618420;54;20038;-66
2022/04/20 09:54:53;;;;;;;3.58;2.90;;;;;;;12.66;30.62;98619.78;2618454;54;20034;-66
2022/04/20 09:57:23;;;;;;;6.18;2.92;;;;;;;12.66;30.82;98609.16;2618135;54;20038;-67
2022/04/20 10:00:03;;;;;;;4.32;2.63;;;;;;;12.70;30.58;98614.88;2618631;54;20027;-66
2022/04/20 10:02:51;;;;;;;6.07;4.60;;;;;;;12.66;29.70;98603.88;2618064;54;20029;-66
2022/04/20 10:05:23;;;;;;;6.18;4.07;;;;;;;12.79;29.81;98610.94;2618279;54;20057;-67
2022/04/20 10:07:59;;;;;;;3.58;2.78;;;;;;;12.88;29.73;98612.31;2617573;54;20042;-67
2022/04/20 10:10:30;;;;;;;3.47;2.33;;;;;;;12.70;30.68;98613.03;2618210;54;20041;-68
2022/04/20 10:13:02;;;;;;;3.30;2.67;;;;;;;12.62;30.72;98605.31;2617676;47;20026;-68
2022/04/20 10:18:20;;;;;;;3.45;2.60;;;;;;;12.92;30.20;98586.19;2616534;54;20047;-64
2022/04/20 10:20:57;;;;;;;3.05;2.72;;;;;;;12.94;30.26;98595.56;2618396;54;20037;-65
2022/04/20 10:23:29;;;;;;;4.00;2.47;;;;;;;12.97;30.06;98584.50;2617690;54;20038;-64
2022/04/20 10:26:01;;;;;;;2.58;2.15;;;;;;;12.99;29.71;98587.78;2618315;54;20052;-65
2022/04/20 10:28:38;;;;;;;4.68;2.05;;;;;;;12.92;29.88;98583.53;2618275;54;20065;-67
2022/04/20 10:31:21;;;;;;;4.63;2.53;;;;;;;12.98;30.09;98583.50;2617956;54;20154;-64
2022/04/20 10:33:59;;;;;;;3.42;2.75;;;;;;;12.80;30.37;98578.91;2617576;47;20026;-63
2022/04/20 10:36:42;;;;;;;3.33;2.83;;;;;;;12.82;31.16;98582.16;2617495;47;20117;-68
2022/04/20 10:39:22;;;;;;;4.00;2.60;;;;;;;12.97;30.82;98575.75;2617631;47;20054;-68
2022/04/20 10:42:32;;;;;;;5.60;2.90;;;;;;;13.14;29.95;98579.50;2617194;47;20031;-66
2022/04/20 10:45:05;;;;;;;3.45;2.75;;;;;;;13.22;30.35;98565.97;2618886;39;20491;-67
2022/04/20 10:47:40;;;;;;;4.70;2.60;;;;;;;13.34;30.09;98569.59;2617530;54;20034;-67
2022/04/20 10:50:19;;;;;;;3.10;2.67;;;;;;;13.54;30.01;98563.31;2619125;39;20447;-67
2022/04/20 10:52:56;;;;;;;5.97;3.08;;;;;;;13.51;29.75;98556.63;2618644;54;20129;-66
2022/04/20 10:55:27;;;;;;;9.63;3.72;;;;;;;13.57;29.46;98555.72;2617780;54;20035;-64
2022/04/20 10:57:58;;;;;;;4.22;2.75;;;;;;;13.57;29.77;98537.13;2618374;54;20031;-67
2022/04/20 11:00:30;;;;;;;3.92;2.60;;;;;;;13.62;29.09;98533.81;2618547;54;20038;-66
2022/04/20 11:03:06;;;;;;;5.50;2.80;;;;;;;13.71;28.56;98532.50;2618557;54;20045;-67
2022/04/20 11:05:53;;;;;;;4.47;2.72;;;;;;;13.76;28.75;98538.00;2618711;54;20075;-65
2022/04/20 11:08:25;;;;;;;3.28;2.30;;;;;;;13.70;28.72;98533.53;2618192;54;20054;-67
2022/04/20 11:19:20;;;;;;;2.90;2.58;;;;;;;13.95;28.19;98536.16;2618028;54;20030;-66
2022/04/20 11:22:09;;;;;;;4.20;2.72;;;;;;;13.94;28.29;98520.44;2618361;39;20451;-68
2022/04/20 11:24:43;;;;;;;;;;;;;;;13.81;28.33;98537.34;2618874;54;20033;-67
2022/04/20 11:27:13;;;;;;;4.55;2.80;;;;;;;13.78;28.76;98535.91;2618240;54;19953;-66
2022/04/20 11:29:47;;;;;;;4.30;2.72;;;;;;;13.82;28.25;98528.31;2618621;46;20058;-67
2022/04/20 11:32:17;;;;;;;2.78;2.58;;;;;;;13.85;28.70;98520.72;2618452;54;20045;-67
2022/04/20 11:35:07;;;;;;;5.10;2.42;;;;;;;13.97;28.33;98520.00;2618215;39;20444;-65
2022/04/20 11:37:39;;;;;;;2.83;2.60;;;;;;;14.22;27.94;98518.06;2617978;54;20027;-68
2022/04/20 11:40:14;;;;;;;3.67;2.35;;;;;;;14.39;28.08;98518.28;2618325;54;20038;-65
2022/04/20 11:43:05;;;;;;;3.90;2.45;;;;;;;14.34;28.22;98513.63;2618318;39;20408;-67
2022/04/20 11:45:55;;;;;;;4.68;3.03;;;;;;;14.24;28.26;98508.00;2618243;54;20129;-66
2022/04/20 11:48:25;;;;;;;5.35;2.50;;;;;;;14.56;28.09;98518.50;2618721;39;20376;-66
2022/04/20 11:51:01;;;;;;;4.97;2.70;;;;;;;14.59;27.71;98513.53;2618625;54;20033;-68
2022/04/20 11:53:34;;;;;;;3.15;2.63;;;;;;;14.42;27.70;98517.81;2617925;54;20031;-68
2022/04/20 11:56:38;;;;;;;3.03;2.70;;;;;;;14.52;27.44;98515.47;2618580;54;20038;-68
2022/04/20 11:59:10;;;;;;;3.97;2.33;;;;;;;14.61;27.21;98511.47;2617856;54;20046;-68
2022/04/20 12:01:41;;;;;;;3.88;2.70;;;;;;;14.61;27.35;98514.13;2618825;54;20079;-67
2022/04/20 12:04:15;;;;;;;4.47;2.67;;;;;;;14.48;27.84;98514.25;2617927;54;20047;-68
2022/04/20 12:06:57;;;;;;;6.88;2.75;;;;;;;14.59;27.51;98512.72;2617751;54;20049;-64
2022/04/20 12:09:28;;;;;;;4.45;2.90;;;;;;;14.65;27.56;98511.00;2619826;54;20031;-64
2022/04/20 12:12:00;;;;;;;3.13;2.60;;;;;;;14.65;27.33;98501.16;2621253;54;20045;-65
2022/04/20 12:14:30;;;;;;;4.22;2.55;;;;;;;14.76;26.95;98499.59;2619966;54;20038;-63
2022/04/20 12:17:03;;;;;;;6.25;2.90;;;;;;;14.63;27.50;98497.13;2618900;39;20463;-64
2022/04/20 12:19:37;;;;;;;4.15;2.80;;;;;;;14.80;26.75;98493.59;2618744;54;20151;-63
2022/04/20 12:22:12;;;;;;;3.97;2.58;;;;;;;14.76;27.18;98489.75;2620663;54;20034;-64
2022/04/20 12:24:43;;;;;;;3.15;2.40;;;;;;;14.99;26.38;98506.84;2620584;54;20039;-64
2022/04/20 12:27:19;;;;;;;3.63;2.90;;;;;;;14.93;26.48;98503.22;2620065;54;20045;-63
2022/04/20 12:29:55;;;;;;;3.10;2.35;;;;;;;15.04;26.33;98502.44;2620525;54;20041;-64
2022/04/20 12:32:26;;;;;;;3.53;2.45;;;;;;;15.13;25.93;98500.25;2620077;47;20041;-64
2022/04/20 12:35:01;;;;;;;2.97;2.33;;;;;;;15.20;25.54;98506.28;2621722;54;20028;-65
2022/04/20 12:37:39;;;;;;;3.83;2.25;;;;;;;15.16;25.87;98497.16;2620906;54;20038;-65
2022/04/20 12:40:23;;;;;;;5.28;2.70;;;;;;;15.18;25.48;98499.56;2620343;54;20057;-64
2022/04/20 12:43:00;;;;;;;2.53;2.30;;;;;;;15.16;26.04;98480.34;2620189;54;20042;-64
2022/04/20 16:18:54;;;;;;;4.80;3.20;;;;;;;17.37;20.71;98381.06;2620887;46;20034;-66
2022/04/20 16:21:23;;;;;;;6.78;3.10;;;;;;;17.34;20.82;98376.22;2619719;54;20041;-66
2022/04/20 16:23:53;;;;;;;3.22;2.80;;;;;;;17.34;20.61;98378.88;2619293;54;20126;-67